Time;durP1;ratioP1;P1;durP2;ratioP2;P2;SDS_P1;SDS_P2;PMS_P1;PMS_P2;Temp;Humidity;BMP_temperature;BMP_pressure;BME280_temperature;BME280_humidity;BME280_pressure;Samples;Min_cycle;Max_cycle;Signal;HPM_P1;HPM_P2
2022/08/09 00:00:08;;;;;;;0.93;0.85;;;;;;;17.56;92.83;102489.81;6247351;28;20045;-75
2022/08/09 00:03:10;;;;;;;2.08;0.93;;;;;;;17.53;93.43;102486.44;6247594;28;20452;-75
2022/08/09 00:06:11;;;;;;;1.23;0.90;;;;;;;17.47;94.28;102477.88;6247239;28;20056;-74
2022/08/09 00:09:14;;;;;;;2.70;0.90;;;;;;;17.53;93.74;102481.97;6247470;28;20045;-74
2022/08/09 00:12:15;;;;;;;1.52;1.00;;;;;;;17.56;94.50;102484.47;6247273;28;20508;-74
2022/08/09 00:15:18;;;;;;;1.33;0.90;;;;;;;17.53;95.12;102489.09;6247286;28;20053;-74
2022/08/09 00:18:19;;;;;;;2.95;0.93;;;;;;;17.50;94.77;102479.50;6247438;28;20045;-75
2022/08/09 00:21:21;;;;;;;1.13;0.90;;;;;;;17.46;96.20;102493.91;6247048;28;20053;-75
2022/08/09 00:24:22;;;;;;;0.77;0.70;;;;;;;17.43;96.08;102491.41;6247213;28;20049;-74
2022/08/09 00:27:23;;;;;;;1.08;0.82;;;;;;;17.43;95.84;102491.41;6247303;28;20508;-74
2022/08/09 00:30:26;;;;;;;1.58;0.80;;;;;;;17.38;96.47;102488.16;6247010;28;20049;-74
2022/08/09 00:33:27;;;;;;;3.85;1.10;;;;;;;17.32;96.45;102492.00;6246609;28;20049;-74
2022/08/09 00:36:29;;;;;;;2.67;1.17;;;;;;;17.25;96.68;102490.59;6247037;28;20053;-74
2022/08/09 00:39:31;;;;;;;2.92;1.02;;;;;;;17.25;96.99;102485.28;6246903;28;20053;-75
2022/08/09 00:42:32;;;;;;;2.35;1.00;;;;;;;17.27;98.79;102495.84;6247041;28;20049;-74
2022/08/09 00:45:35;;;;;;;0.85;0.85;;;;;;;17.26;97.75;102489.69;6246695;28;20057;-74
2022/08/09 00:48:37;;;;;;;2.10;1.00;;;;;;;17.24;97.66;102489.75;6247089;28;20045;-75
2022/08/09 00:51:38;;;;;;;1.08;0.93;;;;;;;17.21;98.67;102486.38;6246276;28;20048;-74
2022/08/09 00:54:40;;;;;;;1.27;1.00;;;;;;;17.20;98.08;102490.84;6246796;28;20053;-75
2022/08/09 00:57:41;;;;;;;1.67;0.95;;;;;;;17.18;98.11;102489.22;6246992;28;20057;-75
2022/08/09 01:00:44;;;;;;;2.42;1.10;;;;;;;17.14;97.68;102482.34;6246353;28;20064;-75
2022/08/09 01:03:54;;;;;;;1.85;0.90;;;;;;;17.13;98.85;102485.97;6246930;28;20532;-75
2022/08/09 01:07:10;;;;;;;0.70;0.70;;;;;;;17.13;99.06;102481.50;6246420;28;20067;-75
2022/08/09 01:10:18;;;;;;;1.70;1.00;;;;;;;17.10;99.15;102475.50;6246687;28;20050;-75
2022/08/09 01:13:26;;;;;;;1.55;1.00;;;;;;;17.08;98.95;102480.00;6246573;28;20050;-75
2022/08/09 01:16:33;;;;;;;2.67;0.68;;;;;;;17.07;98.44;102486.25;6246430;28;20053;-75
2022/08/09 01:19:42;;;;;;;1.45;1.00;;;;;;;16.98;98.15;102476.97;6246656;28;20057;-75
2022/08/09 01:23:08;;;;;;;1.35;0.80;;;;;;;16.97;98.65;102478.78;6246556;28;20053;-75
2022/08/09 01:26:24;;;;;;;1.52;1.00;;;;;;;16.90;98.73;102484.53;6246437;28;20199;-75
2022/08/09 01:29:33;;;;;;;1.00;0.90;;;;;;;16.85;98.12;102475.91;6246254;28;20045;-74
2022/08/09 01:32:37;;;;;;;1.42;0.98;;;;;;;16.84;99.56;102477.69;6246597;28;20064;-75
2022/08/09 01:35:45;;;;;;;1.90;0.93;;;;;;;16.84;99.65;102484.81;6246169;28;20048;-75
2022/08/09 01:38:48;;;;;;;1.85;1.05;;;;;;;16.79;99.99;102484.19;6246402;28;20065;-75
2022/08/09 01:41:52;;;;;;;2.40;1.23;;;;;;;16.79;99.77;102485.06;6246028;28;20060;-74
2022/08/09 01:44:56;;;;;;;1.95;1.00;;;;;;;16.74;100.00;102481.78;6246153;28;20053;-75
2022/08/09 01:48:00;;;;;;;1.45;1.00;;;;;;;16.72;100.00;102479.22;6246436;28;20405;-75
2022/08/09 01:51:02;;;;;;;1.98;1.10;;;;;;;16.65;100.00;102477.78;6246103;28;20052;-75
2022/08/09 01:54:06;;;;;;;2.10;1.42;;;;;;;16.61;100.00;102483.31;6245963;28;20073;-75
2022/08/09 01:57:12;;;;;;;3.08;1.10;;;;;;;16.57;100.00;102484.41;6245987;28;20050;-75
2022/08/09 02:00:15;;;;;;;1.48;1.00;;;;;;;16.55;100.00;102484.50;6245933;28;20053;-74
2022/08/09 02:03:19;;;;;;;3.95;1.48;;;;;;;16.49;100.00;102492.78;6248665;28;20049;-75
2022/08/09 02:07:07;;;;;;;3.95;1.15;;;;;;;16.48;100.00;102489.22;6250270;28;20049;-75
2022/08/09 02:09:48;;;;;;;1.20;1.10;;;;;;;16.46;100.00;102484.97;6250328;28;20409;-75
2022/08/09 02:12:54;;;;;;;5.28;1.88;;;;;;;16.42;100.00;102494.00;6250382;28;20440;-75
2022/08/09 02:16:00;;;;;;;2.63;1.38;;;;;;;16.39;100.00;102488.84;6250223;28;20057;-75
2022/08/09 02:19:01;;;;;;;5.03;1.05;;;;;;;16.37;100.00;102485.41;6250114;28;20046;-74
2022/08/09 02:22:09;;;;;;;1.52;1.10;;;;;;;16.28;100.00;102480.56;6249734;28;20052;-74
2022/08/09 02:25:15;;;;;;;1.30;0.88;;;;;;;16.21;100.00;102478.22;6249966;28;20061;-75
2022/08/09 02:28:19;;;;;;;6.18;1.48;;;;;;;16.18;100.00;102478.38;6250143;28;20079;-74
2022/08/09 02:31:26;;;;;;;3.15;1.42;;;;;;;16.14;100.00;102483.91;6249490;28;20041;-75
2022/08/09 02:34:32;;;;;;;2.88;1.48;;;;;;;16.12;100.00;102485.75;6249637;28;20060;-75
2022/08/09 02:37:36;;;;;;;1.50;1.20;;;;;;;16.06;100.00;102484.25;6249733;28;20429;-75
2022/08/09 02:40:40;;;;;;;1.33;1.13;;;;;;;16.03;100.00;102484.41;6249230;28;20042;-75
2022/08/09 02:43:44;;;;;;;2.88;1.55;;;;;;;16.01;100.00;102478.31;6225116;28;20045;-75
2022/08/09 02:46:51;;;;;;;1.60;1.10;;;;;;;16.00;100.00;102481.06;6234738;28;20053;-75
2022/08/09 02:49:57;;;;;;;2.58;1.10;;;;;;;15.99;100.00;102485.50;6237589;28;20042;-75
2022/08/09 02:53:03;;;;;;;1.25;1.15;;;;;;;16.01;100.00;102485.44;6237290;28;20417;-75
2022/08/09 02:56:06;;;;;;;1.60;1.10;;;;;;;16.01;100.00;102486.28;6232404;28;20046;-74
2022/08/09 02:59:10;;;;;;;2.17;1.55;;;;;;;16.00;100.00;102489.03;6245028;28;20052;-75
2022/08/09 03:02:15;;;;;;;3.53;1.27;;;;;;;16.00;100.00;102487.22;6248767;28;20046;-75
2022/08/09 03:05:18;;;;;;;2.90;1.20;;;;;;;15.97;100.00;102490.88;6245883;28;20048;-74
2022/08/09 03:08:23;;;;;;;4.30;1.80;;;;;;;15.95;100.00;102487.44;6240510;28;20448;-75
2022/08/09 03:11:26;;;;;;;2.15;1.10;;;;;;;15.91;100.00;102479.72;6248779;28;20417;-75
2022/08/09 03:14:30;;;;;;;2.42;1.42;;;;;;;15.87;100.00;102479.00;6248593;28;20057;-75
2022/08/09 03:17:35;;;;;;;2.30;1.45;;;;;;;15.87;100.00;102486.09;6248882;28;20057;-74
2022/08/09 03:20:37;;;;;;;2.78;1.20;;;;;;;15.83;100.00;102485.38;6248456;28;20049;-75
2022/08/09 03:23:42;;;;;;;2.45;1.60;;;;;;;15.79;100.00;102485.59;6248707;28;20059;-75
2022/08/09 03:26:46;;;;;;;2.47;1.48;;;;;;;15.73;100.00;102479.66;6248591;28;20054;-74
2022/08/09 03:29:49;;;;;;;2.45;1.30;;;;;;;15.70;100.00;102482.44;6241086;28;20041;-75
2022/08/09 03:32:54;;;;;;;2.47;1.20;;;;;;;15.66;100.00;102486.16;6241867;28;20056;-74
2022/08/09 03:35:56;;;;;;;1.83;1.45;;;;;;;15.59;100.00;102484.72;6248361;28;20045;-75
2022/08/09 03:38:57;;;;;;;3.08;2.00;;;;;;;15.53;100.00;102473.53;6248319;28;20058;-74
2022/08/09 03:41:58;;;;;;;3.78;1.73;;;;;;;15.46;100.00;102486.22;6247932;28;20053;-74
2022/08/09 03:45:00;;;;;;;2.03;1.33;;;;;;;15.42;100.00;102482.84;6248250;28;20049;-75
2022/08/09 03:48:03;;;;;;;3.38;1.70;;;;;;;15.36;100.00;102482.28;6248167;28;20045;-75
2022/08/09 03:51:07;;;;;;;3.22;2.10;;;;;;;15.43;100.00;102479.25;6247981;28;20053;-75
2022/08/09 03:54:09;;;;;;;7.18;1.80;;;;;;;15.45;100.00;102480.06;6248006;28;20172;-74
2022/08/09 03:57:12;;;;;;;3.90;1.95;;;;;;;15.40;100.00;102497.94;6247969;28;20507;-75
2022/08/09 04:00:14;;;;;;;4.53;1.95;;;;;;;15.42;100.00;102492.56;6247459;28;20052;-75
2022/08/09 04:03:17;;;;;;;3.50;2.22;;;;;;;15.32;100.00;102496.56;6247968;28;20049;-75
2022/08/09 04:06:19;;;;;;;2.67;1.90;;;;;;;15.23;100.00;102501.34;6247316;28;20429;-75
2022/08/09 04:09:21;;;;;;;6.50;1.90;;;;;;;15.23;100.00;102504.00;6246788;28;20057;-75
2022/08/09 04:12:40;;;;;;;3.00;1.90;;;;;;;15.24;100.00;102502.22;6237693;28;20052;-75
2022/08/09 04:15:43;;;;;;;2.97;2.00;;;;;;;15.21;100.00;102503.22;6223093;28;20046;-75
2022/08/09 04:18:46;;;;;;;3.88;1.63;;;;;;;15.22;100.00;102497.00;6230659;28;20049;-75
2022/08/09 04:21:47;;;;;;;5.40;1.75;;;;;;;15.20;100.00;102509.44;6238026;28;20107;-75
2022/08/09 04:24:48;;;;;;;2.53;2.00;;;;;;;15.16;100.00;102512.28;6234995;28;20049;-75
2022/08/09 04:27:50;;;;;;;3.03;1.95;;;;;;;15.14;100.00;102509.72;6244209;28;20060;-75
2022/08/09 04:30:51;;;;;;;2.33;1.85;;;;;;;15.06;100.00;102509.19;6246942;28;20045;-75
2022/08/09 04:33:54;;;;;;;3.65;2.20;;;;;;;15.09;100.00;102508.19;6241034;28;20489;-75
2022/08/09 04:36:55;;;;;;;2.70;1.83;;;;;;;15.07;100.00;102515.34;6232152;28;20521;-75
2022/08/09 04:39:57;;;;;;;4.03;1.70;;;;;;;15.05;100.00;102511.91;6236771;28;20074;-75
2022/08/09 04:42:58;;;;;;;3.47;2.20;;;;;;;15.11;100.00;102516.94;6233135;28;20052;-76
2022/08/09 04:46:00;;;;;;;3.30;2.05;;;;;;;15.11;100.00;102514.28;6222127;28;20518;-76
2022/08/09 04:49:02;;;;;;;4.20;1.98;;;;;;;15.12;100.00;102521.28;6225156;28;20414;-76
2022/08/09 04:52:04;;;;;;;2.70;1.73;;;;;;;15.12;100.00;102521.28;6233460;28;20697;-76
2022/08/09 04:55:07;;;;;;;2.38;1.88;;;;;;;15.16;100.00;102522.88;6232698;28;20053;-76
2022/08/09 04:58:08;;;;;;;4.30;1.88;;;;;;;15.10;100.00;102526.66;6232751;28;20061;-75
2022/08/09 05:01:09;;;;;;;3.90;2.05;;;;;;;15.09;100.00;102526.75;6233152;28;20390;-76
2022/08/09 05:04:12;;;;;;;4.32;2.10;;;;;;;15.12;100.00;102531.88;6234380;28;20050;-75
2022/08/09 05:07:13;;;;;;;4.47;2.33;;;;;;;15.09;100.00;102524.09;6231672;28;20042;-75
2022/08/09 05:10:15;;;;;;;4.30;2.00;;;;;;;15.16;100.00;102528.16;6225630;28;20046;-76
2022/08/09 05:13:16;;;;;;;3.22;1.98;;;;;;;15.22;100.00;102526.13;6222140;28;20053;-75
2022/08/09 05:16:17;;;;;;;2.28;1.73;;;;;;;15.32;100.00;102528.38;6221915;28;20061;-76
2022/08/09 05:19:21;;;;;;;2.00;1.63;;;;;;;15.37;100.00;102529.88;6222064;28;20069;-75
2022/08/09 05:22:22;;;;;;;4.20;1.90;;;;;;;15.40;100.00;102526.25;6221818;28;20192;-76
2022/08/09 05:25:24;;;;;;;3.05;2.03;;;;;;;15.47;100.00;102539.13;6221875;28;20054;-76
2022/08/09 05:28:26;;;;;;;4.82;2.05;;;;;;;15.43;100.00;102540.19;6221862;28;20086;-76
2022/08/09 05:31:27;;;;;;;3.28;1.95;;;;;;;15.46;100.00;102534.75;6221571;28;20053;-75
2022/08/09 05:34:31;;;;;;;4.13;1.85;;;;;;;15.48;100.00;102545.28;6221658;28;20057;-76
2022/08/09 05:37:33;;;;;;;4.15;1.70;;;;;;;15.46;100.00;102542.72;6225190;28;20053;-76
2022/08/09 05:40:34;;;;;;;3.97;2.10;;;;;;;15.47;100.00;102547.06;6226244;28;20046;-76
2022/08/09 05:43:35;;;;;;;3.15;1.90;;;;;;;15.53;100.00;102553.88;6226540;28;20054;-76
2022/08/09 05:46:37;;;;;;;2.97;1.73;;;;;;;15.50;100.00;102545.22;6226284;28;20505;-76
2022/08/09 05:49:39;;;;;;;3.65;1.75;;;;;;;15.60;100.00;102551.81;6226488;28;20054;-75
2022/08/09 05:52:42;;;;;;;5.68;1.20;;;;;;;15.58;100.00;102561.63;6226061;28;20045;-76
2022/08/09 05:55:43;;;;;;;4.20;2.30;;;;;;;15.59;100.00;102560.72;6226162;28;20058;-75
2022/08/09 05:58:45;;;;;;;4.57;1.77;;;;;;;15.56;100.00;102553.75;6225969;28;20426;-76
2022/08/09 06:01:46;;;;;;;5.15;1.77;;;;;;;15.60;100.00;102568.59;6225813;28;20061;-75
2022/08/09 06:04:49;;;;;;;3.22;1.55;;;;;;;15.68;100.00;102568.28;6225931;28;20046;-76
2022/08/09 06:07:50;;;;;;;2.53;1.70;;;;;;;15.71;100.00;102571.66;6225792;28;20572;-76
2022/08/09 06:10:53;;;;;;;3.95;2.05;;;;;;;15.76;100.00;102573.19;6225670;28;20048;-75
2022/08/09 06:13:55;;;;;;;4.07;2.20;;;;;;;15.82;100.00;102573.81;6225765;28;20062;-75
2022/08/09 06:16:56;;;;;;;3.58;1.98;;;;;;;15.83;100.00;102564.91;6225612;28;20498;-75
2022/08/09 06:19:59;;;;;;;2.95;1.83;;;;;;;15.84;100.00;102561.31;6225372;28;20054;-75
2022/08/09 06:23:00;;;;;;;2.85;2.10;;;;;;;15.87;100.00;102573.59;6225437;28;20421;-76
2022/08/09 06:26:01;;;;;;;4.35;2.17;;;;;;;15.84;100.00;102582.53;6225269;28;20049;-76
2022/08/09 06:29:03;;;;;;;5.03;2.00;;;;;;;15.86;100.00;102571.88;6225132;28;20054;-76
2022/08/09 06:32:05;;;;;;;3.17;2.13;;;;;;;15.96;100.00;102586.41;6225029;28;20433;-76
2022/08/09 06:35:09;;;;;;;2.55;1.77;;;;;;;15.97;100.00;102583.69;6225073;28;20057;-76
2022/08/09 06:38:11;;;;;;;3.38;2.28;;;;;;;16.03;100.00;102584.31;6225118;28;20050;-76
2022/08/09 06:41:12;;;;;;;3.88;2.33;;;;;;;16.17;100.00;102581.91;6224820;28;20409;-76
2022/08/09 06:44:14;;;;;;;5.13;2.03;;;;;;;16.30;100.00;102577.72;6224714;28;20431;-75
2022/08/09 06:47:15;;;;;;;1.98;1.17;;;;;;;16.38;100.00;102580.84;6224484;28;20049;-76
2022/08/09 06:50:18;;;;;;;4.38;2.00;;;;;;;16.39;100.00;102581.72;6224753;28;20054;-75
2022/08/09 06:53:19;;;;;;;2.67;1.83;;;;;;;16.47;100.00;102588.38;6224838;28;20045;-75
2022/08/09 06:56:21;;;;;;;6.13;2.70;;;;;;;16.52;100.00;102582.84;6224583;28;20493;-75
2022/08/09 06:59:22;;;;;;;5.70;2.13;;;;;;;16.58;100.00;102592.28;6224725;28;20050;-75
2022/08/09 07:02:23;;;;;;;3.33;1.73;;;;;;;16.63;100.00;102585.84;6224317;28;20054;-76
2022/08/09 07:05:26;;;;;;;2.40;1.80;;;;;;;16.70;100.00;102589.91;6224344;28;20049;-75
2022/08/09 07:08:28;;;;;;;6.45;2.45;;;;;;;16.77;100.00;102589.63;6224451;28;20053;-75
2022/08/09 07:11:29;;;;;;;2.80;1.42;;;;;;;16.83;100.00;102590.19;6224157;28;20501;-75
2022/08/09 07:14:30;;;;;;;1.95;1.65;;;;;;;16.91;100.00;102585.34;6224060;28;20050;-75
2022/08/09 07:17:32;;;;;;;2.45;1.60;;;;;;;16.98;100.00;102592.06;6224145;28;20417;-76
2022/08/09 07:20:34;;;;;;;1.75;1.30;;;;;;;17.04;100.00;102587.38;6224621;28;20057;-76
2022/08/09 07:23:36;;;;;;;2.08;1.42;;;;;;;17.11;100.00;102594.09;6229526;28;20057;-78
2022/08/09 07:26:37;;;;;;;4.65;1.20;;;;;;;17.18;100.00;102598.16;6235250;28;20049;-77
2022/08/09 07:29:38;;;;;;;3.67;1.27;;;;;;;17.25;100.00;102600.41;6232798;28;20041;-78
2022/08/09 07:32:41;;;;;;;2.88;1.00;;;;;;;17.35;100.00;102595.50;6251507;28;20052;-78
2022/08/09 07:35:43;;;;;;;1.20;0.90;;;;;;;17.43;100.00;102605.69;6251692;28;20052;-77
2022/08/09 07:38:45;;;;;;;1.80;1.23;;;;;;;17.53;100.00;102600.75;6240099;28;20045;-77
2022/08/09 07:41:47;;;;;;;2.47;1.27;;;;;;;17.57;99.16;102603.16;6226149;28;20482;-78
2022/08/09 07:44:48;;;;;;;1.63;1.08;;;;;;;17.65;98.37;102600.13;6227203;28;20050;-77
2022/08/09 07:47:49;;;;;;;2.25;1.27;;;;;;;17.70;97.08;102596.25;6225989;28;20045;-77
2022/08/09 07:50:52;;;;;;;1.13;0.85;;;;;;;17.77;97.00;102595.97;6226468;28;20073;-77
2022/08/09 07:53:53;;;;;;;0.82;0.77;;;;;;;17.85;96.00;102602.59;6223999;28;20053;-77
2022/08/09 07:56:55;;;;;;;1.15;0.90;;;;;;;18.02;94.87;102609.63;6244921;28;20060;-76
2022/08/09 07:59:56;;;;;;;1.45;0.70;;;;;;;18.13;93.18;102603.75;6251338;28;20049;-77
2022/08/09 08:02:58;;;;;;;0.80;0.70;;;;;;;18.29;90.46;102604.59;6248941;28;20049;-77
2022/08/09 08:06:00;;;;;;;0.73;0.70;;;;;;;18.39;89.80;102602.25;6237646;28;20056;-77
2022/08/09 08:09:02;;;;;;;5.07;1.00;;;;;;;18.42;89.41;102607.44;6237621;28;20049;-76
2022/08/09 08:12:04;;;;;;;2.22;0.77;;;;;;;18.50;88.40;102603.38;6230474;28;20042;-76
2022/08/09 08:15:06;;;;;;;1.48;0.88;;;;;;;18.59;87.23;102606.47;6231602;28;20045;-76
2022/08/09 08:18:07;;;;;;;1.27;0.70;;;;;;;18.64;87.36;102593.75;6243273;28;20053;-77
2022/08/09 08:21:10;;;;;;;0.57;0.57;;;;;;;18.68;86.90;102597.94;6236810;28;20057;-77
2022/08/09 08:24:11;;;;;;;2.95;0.75;;;;;;;18.79;85.16;102598.19;6231800;28;20416;-77
2022/08/09 08:27:13;;;;;;;1.00;0.77;;;;;;;18.85;84.63;102595.19;6229545;28;20056;-74
2022/08/09 08:30:17;;;;;;;0.60;0.60;;;;;;;18.91;83.55;102592.16;6233155;28;20057;-77
2022/08/09 08:33:18;;;;;;;1.95;0.60;;;;;;;18.95;84.20;102593.69;6226205;28;20046;-77
2022/08/09 08:36:21;;;;;;;1.08;0.70;;;;;;;19.01;83.70;102600.47;6229243;28;20452;-76
2022/08/09 08:39:22;;;;;;;1.35;0.70;;;;;;;19.08;83.27;102601.81;6230442;28;20050;-75
2022/08/09 08:42:23;;;;;;;1.00;0.60;;;;;;;19.10;83.30;102594.59;6222067;28;20115;-75
2022/08/09 08:45:32;;;;;;;2.60;0.75;;;;;;;19.15;81.67;102592.50;6222299;28;20046;-75
2022/08/09 08:48:34;;;;;;;0.60;0.60;;;;;;;19.30;80.34;102589.84;6222789;28;20559;-76
2022/08/09 08:51:39;;;;;;;0.50;0.50;;;;;;;19.44;79.29;102588.09;6222209;28;20046;-76
2022/08/09 08:54:41;;;;;;;3.58;1.42;;;;;;;19.49;80.01;102593.97;6221862;28;20406;-76
2022/08/09 08:57:42;;;;;;;0.70;0.60;;;;;;;19.57;78.68;102595.31;6222635;28;20077;-76
2022/08/09 09:00:43;;;;;;;1.20;0.75;;;;;;;19.81;75.97;102599.16;6222166;28;20064;-76
2022/08/09 09:03:47;;;;;;;2.55;0.88;;;;;;;19.93;74.96;102594.84;6222165;28;20042;-76
2022/08/09 09:06:51;;;;;;;0.75;0.63;;;;;;;19.97;76.03;102586.53;6221951;28;20718;-76
2022/08/09 09:09:54;;;;;;;1.85;0.80;;;;;;;19.99;75.45;102589.13;6222277;28;20049;-75
2022/08/09 09:12:56;;;;;;;3.80;0.88;;;;;;;20.05;75.76;102590.53;6226037;28;20046;-76
2022/08/09 09:15:58;;;;;;;1.35;0.70;;;;;;;20.02;75.39;102595.13;6226727;28;20054;-77
2022/08/09 09:19:00;;;;;;;0.85;0.57;;;;;;;20.00;75.12;102598.84;6226914;28;20057;-76
2022/08/09 09:22:06;;;;;;;1.25;0.70;;;;;;;20.25;72.85;102590.09;6227199;28;20041;-76
2022/08/09 09:25:08;;;;;;;0.75;0.70;;;;;;;20.21;72.56;102584.13;6226699;28;20050;-76
2022/08/09 09:28:12;;;;;;;3.47;0.93;;;;;;;20.41;71.67;102589.97;6226737;28;20072;-76
2022/08/09 09:31:15;;;;;;;3.72;0.90;;;;;;;20.51;71.39;102588.44;6247571;28;20057;-77
2022/08/09 09:34:17;;;;;;;0.98;0.82;;;;;;;20.62;69.66;102585.03;6251452;28;20057;-77
2022/08/09 09:37:29;;;;;;;2.38;0.60;;;;;;;20.54;70.16;102590.06;6251092;28;20056;-76
2022/08/09 09:40:41;;;;;;;2.50;0.75;;;;;;;20.46;70.38;102583.38;6250719;28;20057;-76
2022/08/09 09:43:45;;;;;;;1.25;0.50;;;;;;;20.49;70.95;102587.69;6250929;28;20049;-76
2022/08/09 09:46:46;;;;;;;3.03;0.52;;;;;;;20.62;69.19;102579.69;6251452;28;20060;-77
2022/08/09 09:49:50;;;;;;;1.05;0.60;;;;;;;20.60;69.54;102582.50;6251149;28;20053;-76
2022/08/09 09:52:53;;;;;;;0.60;0.60;;;;;;;20.73;67.79;102585.22;6250484;28;20052;-76
2022/08/09 09:55:58;;;;;;;2.15;0.80;;;;;;;20.72;66.91;102584.34;6250504;28;20045;-77
2022/08/09 09:59:00;;;;;;;1.52;1.00;;;;;;;20.89;67.61;102582.34;6250320;28;20162;-77
2022/08/09 10:02:02;;;;;;;1.30;0.75;;;;;;;20.88;67.99;102585.97;6250499;28;20056;-77
2022/08/09 10:05:05;;;;;;;1.65;0.70;;;;;;;20.96;66.47;102578.31;6249783;28;20054;-77
2022/08/09 10:08:08;;;;;;;0.50;0.50;;;;;;;21.12;63.83;102587.00;6226007;28;20057;-76
2022/08/09 10:11:20;;;;;;;4.78;1.02;;;;;;;21.23;64.54;102576.41;6230291;28;20052;-76
2022/08/09 10:14:24;;;;;;;0.80;0.68;;;;;;;21.26;63.20;102568.19;6249978;28;20056;-76
2022/08/09 10:17:33;;;;;;;1.17;0.60;;;;;;;21.24;63.28;102564.75;6250293;28;20088;-76
2022/08/09 10:20:34;;;;;;;1.98;0.70;;;;;;;21.33;64.25;102565.94;6250486;28;20049;-78
2022/08/09 10:23:37;;;;;;;0.63;0.55;;;;;;;21.43;62.84;102566.16;6242405;28;20042;-76
2022/08/09 10:26:39;;;;;;;1.40;0.60;;;;;;;21.50;63.93;102570.13;6243264;28;20341;-77
2022/08/09 10:29:41;;;;;;;1.73;0.63;;;;;;;21.70;62.81;102572.22;6224948;28;20136;-75
2022/08/09 10:32:44;;;;;;;1.13;0.70;;;;;;;21.80;61.78;102575.09;6226102;28;20042;-77
2022/08/09 10:35:46;;;;;;;0.88;0.68;;;;;;;21.84;61.75;102570.38;6250320;28;20512;-76
2022/08/09 10:38:49;;;;;;;0.73;0.60;;;;;;;21.86;61.58;102580.03;6225356;28;20056;-76
2022/08/09 10:41:51;;;;;;;0.65;0.60;;;;;;;21.90;59.89;102573.50;6226097;28;20045;-75
2022/08/09 10:44:57;;;;;;;2.92;0.77;;;;;;;21.89;60.76;102576.25;6225301;28;20524;-77
2022/08/09 10:48:06;;;;;;;2.97;0.55;;;;;;;22.09;60.38;102564.97;6225935;28;20414;-76
2022/08/09 10:51:15;;;;;;;1.70;0.80;;;;;;;22.10;61.24;102569.34;6224611;28;20060;-76
2022/08/09 10:54:22;;;;;;;0.50;0.50;;;;;;;22.22;58.82;102564.97;6230426;28;20487;-76
2022/08/09 10:57:34;;;;;;;1.48;0.95;;;;;;;22.18;60.65;102571.50;6234032;28;20050;-76
2022/08/09 11:00:39;;;;;;;1.77;0.85;;;;;;;22.11;61.03;102563.00;6240124;28;20049;-75
2022/08/09 11:04:14;;;;;;;0.68;0.60;;;;;;;21.94;61.76;102564.28;6248604;28;20130;-76
2022/08/09 11:07:29;;;;;;;0.50;0.45;;;;;;;21.91;61.94;102567.16;6247988;28;20463;-76
2022/08/09 11:10:54;;;;;;;2.78;1.05;;;;;;;22.15;61.21;102556.50;6248897;28;20056;-76
2022/08/09 11:14:30;;;;;;;0.85;0.68;;;;;;;22.50;59.71;102553.03;6248655;28;20552;-76
2022/08/09 11:17:51;;;;;;;1.00;0.40;;;;;;;22.78;58.13;102543.75;6237781;28;20059;-76
2022/08/09 11:20:52;;;;;;;0.68;0.55;;;;;;;22.84;57.72;102554.00;6249276;28;20052;-76
2022/08/09 11:24:00;;;;;;;0.60;0.60;;;;;;;22.88;57.23;102555.47;6248634;28;20405;-76
2022/08/09 11:27:30;;;;;;;0.90;0.30;;;;;;;22.87;58.47;102555.59;6248457;28;20049;-76
2022/08/09 11:30:34;;;;;;;1.33;0.63;;;;;;;23.21;58.89;102551.16;6248469;28;20045;-76
2022/08/09 11:33:45;;;;;;;0.52;0.50;;;;;;;23.43;55.63;102542.28;6248422;28;20054;-76
2022/08/09 11:36:47;;;;;;;2.22;0.73;;;;;;;23.65;55.38;102546.84;6248191;28;20053;-76
2022/08/09 11:40:05;;;;;;;1.00;0.50;;;;;;;23.96;55.50;102538.00;6248202;28;20055;-76
2022/08/09 11:43:08;;;;;;;0.50;0.50;;;;;;;23.79;54.34;102535.81;6249559;28;20477;-76
2022/08/09 11:46:10;;;;;;;0.73;0.50;;;;;;;23.63;55.33;102535.34;6248092;28;20049;-76
2022/08/09 11:49:11;;;;;;;0.50;0.50;;;;;;;24.03;54.72;102533.00;6248146;28;20076;-76
2022/08/09 11:52:13;;;;;;;0.30;0.30;;;;;;;24.44;51.91;102523.34;6248901;28;20053;-76
2022/08/09 11:55:31;;;;;;;0.85;0.40;;;;;;;24.83;49.83;102519.09;6250033;28;20051;-77
2022/08/09 11:58:46;;;;;;;0.80;0.50;;;;;;;25.08;48.93;102519.72;6250188;28;20179;-76
2022/08/09 12:01:47;;;;;;;1.67;0.68;;;;;;;25.40;47.03;102520.44;6247648;28;20440;-76
2022/08/09 12:04:51;;;;;;;0.85;0.43;;;;;;;25.54;47.52;102517.38;6248089;28;20049;-76
2022/08/09 12:07:53;;;;;;;0.75;0.50;;;;;;;25.83;48.61;102511.22;6248170;28;20057;-76
2022/08/09 12:10:57;;;;;;;0.98;0.43;;;;;;;26.00;45.76;102505.16;6242367;28;20060;-76
2022/08/09 12:14:04;;;;;;;0.75;0.40;;;;;;;26.36;46.25;102499.22;6233548;28;20042;-76
2022/08/09 12:17:07;;;;;;;2.33;0.77;;;;;;;26.48;45.06;102500.78;6248171;28;20075;-76
2022/08/09 12:20:12;;;;;;;0.40;0.40;;;;;;;26.19;43.36;102504.31;6248227;28;20053;-76
2022/08/09 12:23:14;;;;;;;2.15;0.30;;;;;;;25.55;43.13;102496.66;6247660;28;20503;-76
2022/08/09 12:26:16;;;;;;;0.45;0.30;;;;;;;25.47;44.31;102483.03;6247240;28;20053;-76
2022/08/09 12:29:20;;;;;;;1.92;0.40;;;;;;;25.91;43.87;102492.53;6247963;28;20060;-77
2022/08/09 12:32:25;;;;;;;0.38;0.38;;;;;;;26.27;42.56;102482.06;6248602;28;20057;-77
2022/08/09 12:35:27;;;;;;;0.50;0.30;;;;;;;26.78;42.89;102480.88;6239577;28;20136;-77
2022/08/09 12:38:29;;;;;;;0.95;0.50;;;;;;;27.17;42.60;102487.03;6248894;28;20459;-76
2022/08/09 12:41:33;;;;;;;0.82;0.50;;;;;;;27.63;39.96;102474.44;6247734;28;20072;-76
2022/08/09 12:44:38;;;;;;;0.63;0.40;;;;;;;27.62;39.29;102471.91;6246423;28;20405;-76
2022/08/09 12:47:39;;;;;;;0.30;0.30;;;;;;;27.84;39.08;102470.63;6245174;28;20049;-76
2022/08/09 12:50:41;;;;;;;0.52;0.40;;;;;;;28.03;39.39;102475.91;6247651;28;20045;-76
2022/08/09 12:53:42;;;;;;;2.80;0.43;;;;;;;28.03;38.06;102463.22;6246618;28;20076;-76
2022/08/09 12:56:47;;;;;;;0.40;0.40;;;;;;;28.12;37.79;102466.03;6247777;28;20049;-75
2022/08/09 12:59:50;;;;;;;0.52;0.38;;;;;;;28.32;38.23;102457.56;6246772;28;20053;-76
2022/08/09 13:02:54;;;;;;;0.70;0.30;;;;;;;28.51;37.34;102453.84;6247006;28;20057;-76
2022/08/09 13:05:55;;;;;;;1.20;0.50;;;;;;;28.67;36.73;102463.09;6246907;28;20394;-76
2022/08/09 13:08:58;;;;;;;0.80;0.40;;;;;;;28.54;36.73;102452.69;6248639;28;20386;-76
2022/08/09 13:12:03;;;;;;;1.08;0.60;;;;;;;28.18;36.84;102446.47;6247929;28;20057;-76
2022/08/09 13:15:07;;;;;;;2.90;0.52;;;;;;;28.20;37.06;102444.44;6247717;28;20133;-76
2022/08/09 13:18:09;;;;;;;0.75;0.45;;;;;;;27.97;35.55;102452.19;6248943;28;20060;-76
2022/08/09 13:21:20;;;;;;;0.43;0.38;;;;;;;28.14;36.62;102456.72;6246616;28;20144;-76
2022/08/09 13:24:31;;;;;;;1.50;0.40;;;;;;;28.36;35.53;102450.03;6246554;28;20042;-76
2022/08/09 13:27:34;;;;;;;0.85;0.40;;;;;;;28.40;34.88;102447.84;6246758;28;20053;-76
2022/08/09 13:30:37;;;;;;;1.50;0.57;;;;;;;28.25;35.58;102437.56;6247030;28;20045;-76
2022/08/09 13:33:38;;;;;;;0.32;0.32;;;;;;;28.47;35.65;102438.94;6247089;28;20052;-77
2022/08/09 13:36:39;;;;;;;0.50;0.45;;;;;;;28.81;34.12;102430.03;6246539;28;20413;-76
2022/08/09 13:39:41;;;;;;;0.32;0.32;;;;;;;29.19;33.69;102435.97;6246488;28;20056;-76
2022/08/09 13:42:43;;;;;;;0.68;0.40;;;;;;;29.44;31.80;102431.50;6246443;28;20548;-76
2022/08/09 13:45:45;;;;;;;0.20;0.20;;;;;;;29.62;32.05;102426.84;6246784;28;20405;-76
2022/08/09 13:48:47;;;;;;;0.50;0.47;;;;;;;29.74;32.25;102424.66;6246891;28;20054;-76
2022/08/09 13:51:48;;;;;;;0.50;0.50;;;;;;;29.92;31.42;102424.50;6246607;28;20390;-76
2022/08/09 13:54:50;;;;;;;0.32;0.30;;;;;;;29.97;31.69;102422.97;6246554;28;20050;-76
2022/08/09 13:57:51;;;;;;;0.57;0.43;;;;;;;30.01;31.73;102416.19;6248753;28;20501;-76
2022/08/09 14:00:54;;;;;;;0.68;0.40;;;;;;;29.93;32.28;102418.94;6251020;28;20150;-76
2022/08/09 14:03:55;;;;;;;1.05;0.40;;;;;;;29.83;31.94;102419.06;6250282;28;20046;-77
2022/08/09 14:06:58;;;;;;;0.25;0.25;;;;;;;29.95;32.99;102410.63;6250469;28;20056;-76
2022/08/09 14:09:59;;;;;;;0.40;0.40;;;;;;;29.73;32.54;102426.50;6251080;28;20053;-76